Pamlico — WX6900 — position and weather

sailwx.info

Track history (hours):
 
Tides and Currents Weather Stations Pressure Air Temp Water Temp Dewpoint Dewpoint Depression Visibility Wind Speed Wind Dir Waves Ship Positions

Pamlico

Owner: PCS Phosphate, AURORA, NC. More information available from US FCC via Universal Licensing System and Coast Guard Vessel Documentation Center.

Last reported at 2016-Sep-29 08:33 UTC. Time now 2016-Sep-30 01:36 UTC.
Position N 34°57' W 076°40'.

; draft 2 m.

Type: Tug. MMSI: 367361220.

Date/timePositionNaut miles runAvg speedWind from/ knotsBaromVisibWave heightAir tempDewpointWater temp
2016-Sep-29 08:33N 34°57' W 076°40'6 5.6
2016-Sep-29 07:33N 34°51' W 076°41'  
2016-Sep-25 16:18N 34°59' W 076°42'4 4.9
2016-Sep-25 15:33N 34°55' W 076°39'5 5.3
2016-Sep-25 14:33N 34°50' W 076°41'7 3.5
2016-Sep-25 12:33N 34°43' W 076°42'5 4.6
2016-Sep-25 11:33N 34°48' W 076°41'6 6.2
2016-Sep-25 10:33N 34°54' W 076°41'  
2016-Sep-22 04:33N 34°43' W 076°42'0 0.0
2016-Sep-22 03:33N 34°43' W 076°42'1 0.3
2016-Sep-22 00:33N 34°44' W 076°41'6 6.3
2016-Sep-21 23:33N 34°50' W 076°41'6 6.3
2016-Sep-21 22:33N 34°57' W 076°40'  
Track history (hours):
 
Tides and Currents Weather Stations Pressure Air Temp Water Temp Dewpoint Dewpoint Depression Visibility Wind Speed Wind Dir Waves Ship Positions

Pamlico

Owner: PCS Phosphate, AURORA, NC. More information available from US FCC via Universal Licensing System and Coast Guard Vessel Documentation Center.

Last reported at 2016-Sep-29 08:33 UTC. Time now 2016-Sep-30 01:36 UTC.
Position N 34°57' W 076°40'.

; draft 2 m.

Type: Tug. MMSI: 367361220.

Date/timePositionNaut miles runAvg speedWind from/ knotsBaromVisibWave heightAir tempDewpointWater temp
2016-Sep-29 08:33N 34°57' W 076°40'6 5.6
2016-Sep-29 07:33N 34°51' W 076°41'  
2016-Sep-25 16:18N 34°59' W 076°42'4 4.9
2016-Sep-25 15:33N 34°55' W 076°39'5 5.3
2016-Sep-25 14:33N 34°50' W 076°41'7 3.5
2016-Sep-25 12:33N 34°43' W 076°42'5 4.6
2016-Sep-25 11:33N 34°48' W 076°41'6 6.2
2016-Sep-25 10:33N 34°54' W 076°41'  
2016-Sep-22 04:33N 34°43' W 076°42'0 0.0
2016-Sep-22 03:33N 34°43' W 076°42'1 0.3
2016-Sep-22 00:33N 34°44' W 076°41'6 6.3
2016-Sep-21 23:33N 34°50' W 076°41'6 6.3
2016-Sep-21 22:33N 34°57' W 076°40'  

Dump ship's entire track history